sensor_id;sensor_type;location;lat;lon;timestamp;P1;durP1;ratioP1;P2;durP2;ratioP2
36443;SDS011;24692;45.642;13.806;2022-08-04T00:00:51;2.72;;;2.53;;
36443;SDS011;24692;45.642;13.806;2022-08-04T00:03:32;4.82;;;2.80;;
36443;SDS011;24692;45.642;13.806;2022-08-04T00:06:16;2.60;;;2.40;;
36443;SDS011;24692;45.642;13.806;2022-08-04T00:08:55;2.38;;;2.17;;
36443;SDS011;24692;45.642;13.806;2022-08-04T00:11:26;4.78;;;2.85;;
36443;SDS011;24692;45.642;13.806;2022-08-04T00:14:01;4.22;;;2.42;;
36443;SDS011;24692;45.642;13.806;2022-08-04T00:16:35;4.32;;;2.70;;
36443;SDS011;24692;45.642;13.806;2022-08-04T00:19:03;3.30;;;2.60;;
36443;SDS011;24692;45.642;13.806;2022-08-04T00:21:35;2.80;;;2.60;;
36443;SDS011;24692;45.642;13.806;2022-08-04T00:24:02;3.63;;;2.55;;
36443;SDS011;24692;45.642;13.806;2022-08-04T00:26:29;3.28;;;2.28;;
36443;SDS011;24692;45.642;13.806;2022-08-04T00:28:56;3.33;;;2.60;;
36443;SDS011;24692;45.642;13.806;2022-08-04T00:31:22;3.50;;;2.70;;
36443;SDS011;24692;45.642;13.806;2022-08-04T00:33:48;4.18;;;2.60;;
36443;SDS011;24692;45.642;13.806;2022-08-04T00:36:15;3.65;;;2.72;;
36443;SDS011;24692;45.642;13.806;2022-08-04T00:38:42;4.05;;;2.45;;
36443;SDS011;24692;45.642;13.806;2022-08-04T00:43:58;2.70;;;2.50;;
36443;SDS011;24692;45.642;13.806;2022-08-04T00:46:35;4.50;;;2.40;;
36443;SDS011;24692;45.642;13.806;2022-08-04T00:51:46;2.85;;;2.65;;
36443;SDS011;24692;45.642;13.806;2022-08-04T00:54:25;2.85;;;2.60;;
36443;SDS011;24692;45.642;13.806;2022-08-04T01:05:30;3.03;;;2.45;;
36443;SDS011;24692;45.642;13.806;2022-08-04T01:08:15;2.75;;;2.55;;
36443;SDS011;24692;45.642;13.806;2022-08-04T01:16:09;3.22;;;2.47;;
36443;SDS011;24692;45.642;13.806;2022-08-04T01:29:48;3.35;;;2.40;;
36443;SDS011;24692;45.642;13.806;2022-08-04T01:32:19;3.90;;;2.85;;
36443;SDS011;24692;45.642;13.806;2022-08-04T01:34:51;3.75;;;2.55;;
36443;SDS011;24692;45.642;13.806;2022-08-04T01:40:12;2.55;;;2.35;;
36443;SDS011;24692;45.642;13.806;2022-08-04T01:42:38;2.63;;;2.42;;
36443;SDS011;24692;45.642;13.806;2022-08-04T01:45:10;3.30;;;2.28;;
36443;SDS011;24692;45.642;13.806;2022-08-04T01:47:39;2.50;;;2.30;;
36443;SDS011;24692;45.642;13.806;2022-08-04T01:50:08;2.58;;;2.22;;
36443;SDS011;24692;45.642;13.806;2022-08-04T01:52:36;2.50;;;2.30;;
36443;SDS011;24692;45.642;13.806;2022-08-04T01:55:03;2.70;;;2.50;;
36443;SDS011;24692;45.642;13.806;2022-08-04T01:57:33;2.50;;;2.30;;
36443;SDS011;24692;45.642;13.806;2022-08-04T02:00:21;2.45;;;2.25;;
36443;SDS011;24692;45.642;13.806;2022-08-04T02:02:50;2.25;;;2.10;;
36443;SDS011;24692;45.642;13.806;2022-08-04T02:05:18;3.80;;;2.30;;
36443;SDS011;24692;45.642;13.806;2022-08-04T02:10:45;2.65;;;2.45;;
36443;SDS011;24692;45.642;13.806;2022-08-04T02:16:03;2.50;;;2.30;;
36443;SDS011;24692;45.642;13.806;2022-08-04T02:18:46;2.70;;;2.50;;
36443;SDS011;24692;45.642;13.806;2022-08-04T02:21:24;2.55;;;2.33;;
36443;SDS011;24692;45.642;13.806;2022-08-04T02:23:53;8.70;;;2.50;;
36443;SDS011;24692;45.642;13.806;2022-08-04T02:26:26;3.13;;;2.33;;
36443;SDS011;24692;45.642;13.806;2022-08-04T02:31:47;3.30;;;2.30;;
36443;SDS011;24692;45.642;13.806;2022-08-04T02:36:50;2.72;;;2.50;;
36443;SDS011;24692;45.642;13.806;2022-08-04T02:39:20;2.95;;;2.65;;
36443;SDS011;24692;45.642;13.806;2022-08-04T02:41:47;3.20;;;2.33;;
36443;SDS011;24692;45.642;13.806;2022-08-04T02:44:14;3.33;;;2.38;;
36443;SDS011;24692;45.642;13.806;2022-08-04T02:46:46;7.00;;;2.58;;
36443;SDS011;24692;45.642;13.806;2022-08-04T02:49:14;5.00;;;2.63;;
36443;SDS011;24692;45.642;13.806;2022-08-04T02:51:51;2.63;;;2.38;;
36443;SDS011;24692;45.642;13.806;2022-08-04T02:54:19;2.70;;;2.50;;
36443;SDS011;24692;45.642;13.806;2022-08-04T02:56:50;2.88;;;2.58;;
36443;SDS011;24692;45.642;13.806;2022-08-04T02:59:20;4.45;;;2.30;;
36443;SDS011;24692;45.642;13.806;2022-08-04T03:01:49;2.65;;;2.45;;
36443;SDS011;24692;45.642;13.806;2022-08-04T03:52:24;3.65;;;2.70;;
36443;SDS011;24692;45.642;13.806;2022-08-04T04:00:30;2.70;;;2.50;;
36443;SDS011;24692;45.642;13.806;2022-08-04T04:39:47;3.33;;;2.60;;
36443;SDS011;24692;45.642;13.806;2022-08-04T04:48:07;3.20;;;2.90;;
36443;SDS011;24692;45.642;13.806;2022-08-04T04:53:41;3.03;;;2.72;;
36443;SDS011;24692;45.642;13.806;2022-08-04T04:58:52;2.88;;;2.67;;
36443;SDS011;24692;45.642;13.806;2022-08-04T05:10:33;2.60;;;2.25;;
36443;SDS011;24692;45.642;13.806;2022-08-04T05:15:39;4.93;;;2.67;;
36443;SDS011;24692;45.642;13.806;2022-08-04T05:18:09;3.97;;;2.65;;
36443;SDS011;24692;45.642;13.806;2022-08-04T05:20:41;3.70;;;2.85;;
36443;SDS011;24692;45.642;13.806;2022-08-04T05:23:20;3.03;;;2.50;;
36443;SDS011;24692;45.642;13.806;2022-08-04T05:31:15;4.25;;;2.75;;
36443;SDS011;24692;45.642;13.806;2022-08-04T05:33:53;2.70;;;2.50;;
36443;SDS011;24692;45.642;13.806;2022-08-04T05:36:21;4.07;;;2.72;;
36443;SDS011;24692;45.642;13.806;2022-08-04T05:38:54;3.58;;;2.50;;
36443;SDS011;24692;45.642;13.806;2022-08-04T05:41:23;4.85;;;2.85;;
36443;SDS011;24692;45.642;13.806;2022-08-04T05:43:51;5.45;;;2.80;;
36443;SDS011;24692;45.642;13.806;2022-08-04T05:46:18;2.95;;;2.25;;
36443;SDS011;24692;45.642;13.806;2022-08-04T05:48:44;3.28;;;2.70;;
36443;SDS011;24692;45.642;13.806;2022-08-04T05:51:10;5.38;;;2.55;;
36443;SDS011;24692;45.642;13.806;2022-08-04T05:53:38;3.80;;;2.60;;
36443;SDS011;24692;45.642;13.806;2022-08-04T05:56:08;3.58;;;2.63;;
36443;SDS011;24692;45.642;13.806;2022-08-04T05:58:36;4.43;;;2.85;;
36443;SDS011;24692;45.642;13.806;2022-08-04T06:01:03;4.60;;;2.78;;
36443;SDS011;24692;45.642;13.806;2022-08-04T06:03:32;5.13;;;2.65;;
36443;SDS011;24692;45.642;13.806;2022-08-04T06:05:59;5.10;;;2.90;;
36443;SDS011;24692;45.642;13.806;2022-08-04T06:08:25;3.60;;;2.70;;
36443;SDS011;24692;45.642;13.806;2022-08-04T06:10:51;2.97;;;2.70;;
36443;SDS011;24692;45.642;13.806;2022-08-04T06:13:20;4.18;;;2.67;;
36443;SDS011;24692;45.642;13.806;2022-08-04T06:15:53;6.00;;;2.70;;
36443;SDS011;24692;45.642;13.806;2022-08-04T06:18:21;5.35;;;2.53;;
36443;SDS011;24692;45.642;13.806;2022-08-04T06:20:50;4.55;;;2.78;;
36443;SDS011;24692;45.642;13.806;2022-08-04T06:23:18;5.10;;;2.70;;
36443;SDS011;24692;45.642;13.806;2022-08-04T06:25:49;3.00;;;2.58;;
36443;SDS011;24692;45.642;13.806;2022-08-04T06:28:16;2.63;;;2.42;;
36443;SDS011;24692;45.642;13.806;2022-08-04T06:30:44;2.50;;;2.30;;
36443;SDS011;24692;45.642;13.806;2022-08-04T06:33:13;3.00;;;2.40;;
36443;SDS011;24692;45.642;13.806;2022-08-04T06:35:57;4.30;;;2.83;;
36443;SDS011;24692;45.642;13.806;2022-08-04T06:38:28;2.38;;;2.20;;
36443;SDS011;24692;45.642;13.806;2022-08-04T06:40:55;4.63;;;2.50;;
36443;SDS011;24692;45.642;13.806;2022-08-04T06:43:22;2.38;;;2.15;;
36443;SDS011;24692;45.642;13.806;2022-08-04T06:45:48;3.47;;;2.35;;
36443;SDS011;24692;45.642;13.806;2022-08-04T06:48:17;2.47;;;2.10;;
36443;SDS011;24692;45.642;13.806;2022-08-04T06:50:43;2.90;;;2.60;;
36443;SDS011;24692;45.642;13.806;2022-08-04T06:53:12;3.03;;;2.33;;
36443;SDS011;24692;45.642;13.806;2022-08-04T06:55:38;2.80;;;2.60;;
36443;SDS011;24692;45.642;13.806;2022-08-04T06:58:06;5.00;;;2.55;;
36443;SDS011;24692;45.642;13.806;2022-08-04T07:00:33;2.60;;;2.40;;
36443;SDS011;24692;45.642;13.806;2022-08-04T07:03:00;2.97;;;2.08;;
36443;SDS011;24692;45.642;13.806;2022-08-04T07:05:27;2.95;;;2.13;;
36443;SDS011;24692;45.642;13.806;2022-08-04T07:07:54;4.07;;;2.50;;
36443;SDS011;24692;45.642;13.806;2022-08-04T07:10:20;2.72;;;2.28;;
36443;SDS011;24692;45.642;13.806;2022-08-04T07:12:48;3.30;;;2.20;;
36443;SDS011;24692;45.642;13.806;2022-08-04T07:15:15;2.95;;;2.50;;
36443;SDS011;24692;45.642;13.806;2022-08-04T07:17:42;2.53;;;2.22;;
36443;SDS011;24692;45.642;13.806;2022-08-04T07:20:10;2.45;;;2.25;;
36443;SDS011;24692;45.642;13.806;2022-08-04T07:22:36;4.25;;;2.30;;
36443;SDS011;24692;45.642;13.806;2022-08-04T07:25:07;2.83;;;2.42;;
36443;SDS011;24692;45.642;13.806;2022-08-04T07:27:34;3.03;;;2.13;;
36443;SDS011;24692;45.642;13.806;2022-08-04T07:30:00;3.47;;;2.15;;
36443;SDS011;24692;45.642;13.806;2022-08-04T07:32:29;3.47;;;2.10;;
36443;SDS011;24692;45.642;13.806;2022-08-04T07:34:56;5.50;;;2.17;;
36443;SDS011;24692;45.642;13.806;2022-08-04T07:37:23;2.22;;;2.10;;
36443;SDS011;24692;45.642;13.806;2022-08-04T07:39:48;3.33;;;2.00;;
36443;SDS011;24692;45.642;13.806;2022-08-04T07:42:16;4.53;;;2.20;;
36443;SDS011;24692;45.642;13.806;2022-08-04T07:44:44;2.78;;;2.10;;
36443;SDS011;24692;45.642;13.806;2022-08-04T07:47:10;2.80;;;2.15;;
36443;SDS011;24692;45.642;13.806;2022-08-04T07:49:36;3.15;;;2.15;;
36443;SDS011;24692;45.642;13.806;2022-08-04T07:52:03;2.20;;;2.00;;
36443;SDS011;24692;45.642;13.806;2022-08-04T07:54:30;2.28;;;2.03;;
36443;SDS011;24692;45.642;13.806;2022-08-04T07:56:57;3.15;;;2.00;;
36443;SDS011;24692;45.642;13.806;2022-08-04T07:59:23;4.05;;;2.00;;
36443;SDS011;24692;45.642;13.806;2022-08-04T08:01:48;2.85;;;1.98;;
36443;SDS011;24692;45.642;13.806;2022-08-04T08:04:15;2.20;;;2.00;;
36443;SDS011;24692;45.642;13.806;2022-08-04T08:06:41;4.05;;;2.25;;
36443;SDS011;24692;45.642;13.806;2022-08-04T08:09:08;3.88;;;2.20;;
36443;SDS011;24692;45.642;13.806;2022-08-04T08:11:36;3.67;;;2.30;;
36443;SDS011;24692;45.642;13.806;2022-08-04T08:14:02;2.20;;;2.00;;
36443;SDS011;24692;45.642;13.806;2022-08-04T08:16:30;2.78;;;1.90;;
36443;SDS011;24692;45.642;13.806;2022-08-04T08:18:57;2.15;;;1.98;;
36443;SDS011;24692;45.642;13.806;2022-08-04T08:21:24;2.60;;;2.10;;
36443;SDS011;24692;45.642;13.806;2022-08-04T08:23:50;4.18;;;2.13;;
36443;SDS011;24692;45.642;13.806;2022-08-04T08:26:16;3.58;;;2.60;;
36443;SDS011;24692;45.642;13.806;2022-08-04T08:28:48;4.32;;;2.30;;
36443;SDS011;24692;45.642;13.806;2022-08-04T08:31:14;3.63;;;2.50;;
36443;SDS011;24692;45.642;13.806;2022-08-04T08:33:40;2.97;;;2.67;;
36443;SDS011;24692;45.642;13.806;2022-08-04T08:52:06;2.60;;;2.30;;
36443;SDS011;24692;45.642;13.806;2022-08-04T08:55:02;3.15;;;2.38;;
36443;SDS011;24692;45.642;13.806;2022-08-04T09:03:34;2.78;;;2.40;;
36443;SDS011;24692;45.642;13.806;2022-08-04T09:11:30;4.10;;;2.60;;
36443;SDS011;24692;45.642;13.806;2022-08-04T09:14:16;4.70;;;2.60;;
36443;SDS011;24692;45.642;13.806;2022-08-04T09:16:50;3.50;;;2.42;;
36443;SDS011;24692;45.642;13.806;2022-08-04T09:19:22;4.18;;;2.60;;
36443;SDS011;24692;45.642;13.806;2022-08-04T09:22:15;3.35;;;2.28;;
36443;SDS011;24692;45.642;13.806;2022-08-04T09:30:20;2.40;;;2.20;;
36443;SDS011;24692;45.642;13.806;2022-08-04T09:33:19;2.65;;;2.45;;
36443;SDS011;24692;45.642;13.806;2022-08-04T09:36:03;3.22;;;2.20;;
36443;SDS011;24692;45.642;13.806;2022-08-04T09:43:50;2.55;;;2.13;;
36443;SDS011;24692;45.642;13.806;2022-08-04T09:47:08;4.55;;;1.80;;
36443;SDS011;24692;45.642;13.806;2022-08-04T09:49:35;2.33;;;2.20;;
36443;SDS011;24692;45.642;13.806;2022-08-04T09:55:12;3.55;;;2.22;;
36443;SDS011;24692;45.642;13.806;2022-08-04T09:57:54;3.30;;;1.85;;
36443;SDS011;24692;45.642;13.806;2022-08-04T10:00:33;2.85;;;1.90;;
36443;SDS011;24692;45.642;13.806;2022-08-04T10:03:04;2.42;;;2.08;;
36443;SDS011;24692;45.642;13.806;2022-08-04T10:05:37;2.65;;;1.98;;
36443;SDS011;24692;45.642;13.806;2022-08-04T10:08:51;2.17;;;1.83;;
36443;SDS011;24692;45.642;13.806;2022-08-04T10:11:44;2.40;;;2.10;;
36443;SDS011;24692;45.642;13.806;2022-08-04T10:26:19;1.83;;;1.73;;
36443;SDS011;24692;45.642;13.806;2022-08-04T10:29:18;3.70;;;1.90;;
36443;SDS011;24692;45.642;13.806;2022-08-04T10:37:39;2.00;;;1.83;;
36443;SDS011;24692;45.642;13.806;2022-08-04T10:40:33;1.77;;;1.67;;
36443;SDS011;24692;45.642;13.806;2022-08-04T10:46:16;2.55;;;1.90;;
36443;SDS011;24692;45.642;13.806;2022-08-04T10:49:01;2.45;;;1.90;;
36443;SDS011;24692;45.642;13.806;2022-08-04T10:56:51;2.85;;;1.70;;
36443;SDS011;24692;45.642;13.806;2022-08-04T10:59:25;1.80;;;1.70;;
36443;SDS011;24692;45.642;13.806;2022-08-04T11:01:58;1.98;;;1.77;;
36443;SDS011;24692;45.642;13.806;2022-08-04T11:04:36;1.90;;;1.80;;
36443;SDS011;24692;45.642;13.806;2022-08-04T11:07:08;1.67;;;1.58;;
36443;SDS011;24692;45.642;13.806;2022-08-04T11:09:36;1.67;;;1.58;;
36443;SDS011;24692;45.642;13.806;2022-08-04T11:12:15;1.63;;;1.52;;
36443;SDS011;24692;45.642;13.806;2022-08-04T11:17:31;2.03;;;1.70;;
36443;SDS011;24692;45.642;13.806;2022-08-04T11:20:14;1.63;;;1.52;;
36443;SDS011;24692;45.642;13.806;2022-08-04T11:22:49;2.53;;;1.50;;
36443;SDS011;24692;45.642;13.806;2022-08-04T11:25:29;1.88;;;1.73;;
36443;SDS011;24692;45.642;13.806;2022-08-04T11:30:37;1.60;;;1.48;;
36443;SDS011;24692;45.642;13.806;2022-08-04T11:36:14;2.00;;;1.30;;
36443;SDS011;24692;45.642;13.806;2022-08-04T11:38:57;2.22;;;1.48;;
36443;SDS011;24692;45.642;13.806;2022-08-04T11:41:36;2.08;;;1.50;;
36443;SDS011;24692;45.642;13.806;2022-08-04T11:44:15;1.70;;;1.60;;
36443;SDS011;24692;45.642;13.806;2022-08-04T11:46:47;2.92;;;1.70;;
36443;SDS011;24692;45.642;13.806;2022-08-04T11:49:20;1.58;;;1.48;;
36443;SDS011;24692;45.642;13.806;2022-08-04T11:51:59;2.97;;;1.50;;
36443;SDS011;24692;45.642;13.806;2022-08-04T11:54:26;1.65;;;1.55;;
36443;SDS011;24692;45.642;13.806;2022-08-04T11:56:52;2.28;;;1.60;;
36443;SDS011;24692;45.642;13.806;2022-08-04T11:59:20;1.40;;;1.30;;
36443;SDS011;24692;45.642;13.806;2022-08-04T12:05:05;1.77;;;1.42;;
36443;SDS011;24692;45.642;13.806;2022-08-04T12:10:44;3.30;;;1.60;;
36443;SDS011;24692;45.642;13.806;2022-08-04T12:13:40;2.95;;;1.65;;
36443;SDS011;24692;45.642;13.806;2022-08-04T12:16:24;1.90;;;1.70;;
36443;SDS011;24692;45.642;13.806;2022-08-04T12:21:38;2.35;;;2.15;;
36443;SDS011;24692;45.642;13.806;2022-08-04T12:24:22;2.17;;;1.92;;
36443;SDS011;24692;45.642;13.806;2022-08-04T12:27:09;2.30;;;2.10;;
36443;SDS011;24692;45.642;13.806;2022-08-04T12:29:49;2.05;;;1.95;;
36443;SDS011;24692;45.642;13.806;2022-08-04T12:32:24;1.90;;;1.77;;
36443;SDS011;24692;45.642;13.806;2022-08-04T12:35:08;3.05;;;2.00;;
36443;SDS011;24692;45.642;13.806;2022-08-04T12:37:58;3.22;;;2.17;;
36443;SDS011;24692;45.642;13.806;2022-08-04T12:43:05;3.38;;;1.90;;
36443;SDS011;24692;45.642;13.806;2022-08-04T12:45:35;2.15;;;1.98;;
36443;SDS011;24692;45.642;13.806;2022-08-04T12:48:10;2.47;;;1.60;;
36443;SDS011;24692;45.642;13.806;2022-08-04T12:50:37;3.67;;;1.80;;
36443;SDS011;24692;45.642;13.806;2022-08-04T12:53:10;4.57;;;2.10;;
36443;SDS011;24692;45.642;13.806;2022-08-04T12:55:37;2.80;;;2.47;;
36443;SDS011;24692;45.642;13.806;2022-08-04T12:58:14;2.55;;;2.00;;
36443;SDS011;24692;45.642;13.806;2022-08-04T13:00:43;3.20;;;2.15;;
36443;SDS011;24692;45.642;13.806;2022-08-04T13:03:15;4.10;;;2.25;;
36443;SDS011;24692;45.642;13.806;2022-08-04T13:05:43;4.00;;;1.80;;
36443;SDS011;24692;45.642;13.806;2022-08-04T13:08:10;2.95;;;2.03;;
36443;SDS011;24692;45.642;13.806;2022-08-04T13:10:41;2.03;;;1.80;;
36443;SDS011;24692;45.642;13.806;2022-08-04T13:13:14;2.65;;;1.70;;
36443;SDS011;24692;45.642;13.806;2022-08-04T13:18:25;3.47;;;1.50;;
36443;SDS011;24692;45.642;13.806;2022-08-04T13:20:52;1.60;;;1.50;;
36443;SDS011;24692;45.642;13.806;2022-08-04T13:23:18;1.65;;;1.55;;
36443;SDS011;24692;45.642;13.806;2022-08-04T13:25:46;2.65;;;1.60;;
36443;SDS011;24692;45.642;13.806;2022-08-04T13:28:15;1.85;;;1.75;;
36443;SDS011;24692;45.642;13.806;2022-08-04T13:30:47;2.10;;;1.90;;
36443;SDS011;24692;45.642;13.806;2022-08-04T13:33:18;2.55;;;1.75;;
36443;SDS011;24692;45.642;13.806;2022-08-04T13:35:45;4.38;;;1.90;;
36443;SDS011;24692;45.642;13.806;2022-08-04T13:38:12;3.15;;;1.70;;
36443;SDS011;24692;45.642;13.806;2022-08-04T13:40:40;1.98;;;1.88;;
36443;SDS011;24692;45.642;13.806;2022-08-04T13:43:09;1.75;;;1.60;;
36443;SDS011;24692;45.642;13.806;2022-08-04T13:45:48;3.05;;;1.85;;
36443;SDS011;24692;45.642;13.806;2022-08-04T13:48:15;1.55;;;1.45;;
36443;SDS011;24692;45.642;13.806;2022-08-04T13:50:45;3.25;;;1.70;;
36443;SDS011;24692;45.642;13.806;2022-08-04T13:53:12;1.60;;;1.50;;
36443;SDS011;24692;45.642;13.806;2022-08-04T13:55:41;2.55;;;1.80;;
36443;SDS011;24692;45.642;13.806;2022-08-04T13:58:13;1.92;;;1.70;;
36443;SDS011;24692;45.642;13.806;2022-08-04T14:00:46;1.95;;;1.67;;
36443;SDS011;24692;45.642;13.806;2022-08-04T14:03:38;2.97;;;1.63;;
36443;SDS011;24692;45.642;13.806;2022-08-04T14:08:56;3.97;;;1.70;;
36443;SDS011;24692;45.642;13.806;2022-08-04T14:13:58;2.08;;;1.55;;
36443;SDS011;24692;45.642;13.806;2022-08-04T14:16:25;1.55;;;1.40;;
36443;SDS011;24692;45.642;13.806;2022-08-04T14:18:58;1.90;;;1.40;;
36443;SDS011;24692;45.642;13.806;2022-08-04T14:21:25;1.92;;;1.63;;
36443;SDS011;24692;45.642;13.806;2022-08-04T14:23:54;3.90;;;1.60;;
36443;SDS011;24692;45.642;13.806;2022-08-04T14:29:05;1.60;;;1.50;;
36443;SDS011;24692;45.642;13.806;2022-08-04T14:31:35;1.92;;;1.63;;
36443;SDS011;24692;45.642;13.806;2022-08-04T14:34:01;2.35;;;1.63;;
36443;SDS011;24692;45.642;13.806;2022-08-04T14:36:27;2.58;;;1.80;;
36443;SDS011;24692;45.642;13.806;2022-08-04T14:39:07;2.97;;;1.80;;
36443;SDS011;24692;45.642;13.806;2022-08-04T14:41:46;2.05;;;1.85;;
36443;SDS011;24692;45.642;13.806;2022-08-04T14:44:14;2.03;;;1.83;;
36443;SDS011;24692;45.642;13.806;2022-08-04T14:46:49;1.58;;;1.48;;
36443;SDS011;24692;45.642;13.806;2022-08-04T14:49:19;2.45;;;1.60;;
36443;SDS011;24692;45.642;13.806;2022-08-04T14:51:53;1.90;;;1.80;;
36443;SDS011;24692;45.642;13.806;2022-08-04T14:54:33;2.10;;;1.70;;
36443;SDS011;24692;45.642;13.806;2022-08-04T14:57:00;2.42;;;2.00;;
36443;SDS011;24692;45.642;13.806;2022-08-04T14:59:40;1.92;;;1.80;;
36443;SDS011;24692;45.642;13.806;2022-08-04T15:02:11;2.53;;;1.90;;
36443;SDS011;24692;45.642;13.806;2022-08-04T15:04:38;2.97;;;1.90;;
36443;SDS011;24692;45.642;13.806;2022-08-04T15:07:06;4.25;;;2.05;;
36443;SDS011;24692;45.642;13.806;2022-08-04T15:09:33;4.13;;;1.90;;
36443;SDS011;24692;45.642;13.806;2022-08-04T15:11:59;3.30;;;1.90;;
36443;SDS011;24692;45.642;13.806;2022-08-04T15:14:24;2.35;;;1.80;;
36443;SDS011;24692;45.642;13.806;2022-08-04T15:16:50;7.82;;;1.77;;
36443;SDS011;24692;45.642;13.806;2022-08-04T15:19:16;2.33;;;1.80;;
36443;SDS011;24692;45.642;13.806;2022-08-04T15:21:42;3.13;;;1.90;;
36443;SDS011;24692;45.642;13.806;2022-08-04T15:24:08;1.95;;;1.80;;
36443;SDS011;24692;45.642;13.806;2022-08-04T15:31:41;2.05;;;1.80;;
36443;SDS011;24692;45.642;13.806;2022-08-04T15:34:15;2.80;;;2.00;;
36443;SDS011;24692;45.642;13.806;2022-08-04T15:36:44;3.17;;;1.70;;
36443;SDS011;24692;45.642;13.806;2022-08-04T15:39:23;1.98;;;1.80;;
36443;SDS011;24692;45.642;13.806;2022-08-04T15:42:15;3.20;;;2.30;;
36443;SDS011;24692;45.642;13.806;2022-08-04T15:45:11;2.92;;;2.17;;
36443;SDS011;24692;45.642;13.806;2022-08-04T15:48:35;3.75;;;1.67;;
36443;SDS011;24692;45.642;13.806;2022-08-04T15:50:36;2.20;;;2.00;;
36443;SDS011;24692;45.642;13.806;2022-08-04T15:58:53;3.45;;;1.60;;
36443;SDS011;24692;45.642;13.806;2022-08-04T16:01:19;3.10;;;1.60;;
36443;SDS011;24692;45.642;13.806;2022-08-04T16:03:46;1.77;;;1.65;;
36443;SDS011;24692;45.642;13.806;2022-08-04T16:16:25;2.22;;;1.85;;
36443;SDS011;24692;45.642;13.806;2022-08-04T16:18:51;3.78;;;1.80;;
36443;SDS011;24692;45.642;13.806;2022-08-04T16:21:21;2.03;;;1.67;;
36443;SDS011;24692;45.642;13.806;2022-08-04T16:29:01;2.08;;;1.85;;
36443;SDS011;24692;45.642;13.806;2022-08-04T16:32:05;2.72;;;2.05;;
36443;SDS011;24692;45.642;13.806;2022-08-04T16:37:15;2.15;;;1.98;;
36443;SDS011;24692;45.642;13.806;2022-08-04T16:39:42;1.95;;;1.85;;
36443;SDS011;24692;45.642;13.806;2022-08-04T16:42:28;3.70;;;2.17;;
36443;SDS011;24692;45.642;13.806;2022-08-04T16:44:57;2.95;;;1.90;;
36443;SDS011;24692;45.642;13.806;2022-08-04T16:50:16;1.80;;;1.70;;
36443;SDS011;24692;45.642;13.806;2022-08-04T16:52:50;1.80;;;1.70;;
36443;SDS011;24692;45.642;13.806;2022-08-04T16:55:21;2.58;;;1.92;;
36443;SDS011;24692;45.642;13.806;2022-08-04T16:57:53;3.35;;;1.90;;
36443;SDS011;24692;45.642;13.806;2022-08-04T17:00:30;2.95;;;2.10;;
36443;SDS011;24692;45.642;13.806;2022-08-04T17:03:01;2.60;;;1.80;;
36443;SDS011;24692;45.642;13.806;2022-08-04T17:05:31;3.17;;;1.95;;
36443;SDS011;24692;45.642;13.806;2022-08-04T17:07:58;2.30;;;1.98;;
36443;SDS011;24692;45.642;13.806;2022-08-04T17:12:59;3.00;;;1.95;;
36443;SDS011;24692;45.642;13.806;2022-08-04T17:15:26;3.78;;;2.10;;
36443;SDS011;24692;45.642;13.806;2022-08-04T17:18:12;2.33;;;2.10;;
36443;SDS011;24692;45.642;13.806;2022-08-04T17:20:39;2.17;;;1.98;;
36443;SDS011;24692;45.642;13.806;2022-08-04T17:28:45;4.55;;;2.08;;
36443;SDS011;24692;45.642;13.806;2022-08-04T17:31:12;2.35;;;2.20;;
36443;SDS011;24692;45.642;13.806;2022-08-04T17:33:39;3.65;;;1.83;;
36443;SDS011;24692;45.642;13.806;2022-08-04T17:36:09;3.67;;;2.30;;
36443;SDS011;24692;45.642;13.806;2022-08-04T17:38:39;2.05;;;1.95;;
36443;SDS011;24692;45.642;13.806;2022-08-04T17:41:08;3.05;;;2.13;;
36443;SDS011;24692;45.642;13.806;2022-08-04T17:51:52;3.13;;;1.90;;
36443;SDS011;24692;45.642;13.806;2022-08-04T17:56:52;2.97;;;1.90;;
36443;SDS011;24692;45.642;13.806;2022-08-04T17:59:21;4.13;;;2.10;;
36443;SDS011;24692;45.642;13.806;2022-08-04T18:06:54;4.00;;;2.00;;
36443;SDS011;24692;45.642;13.806;2022-08-04T18:09:22;2.60;;;2.30;;
36443;SDS011;24692;45.642;13.806;2022-08-04T18:11:55;2.97;;;2.10;;
36443;SDS011;24692;45.642;13.806;2022-08-04T18:14:27;2.92;;;2.20;;
36443;SDS011;24692;45.642;13.806;2022-08-04T18:17:01;4.32;;;2.22;;
36443;SDS011;24692;45.642;13.806;2022-08-04T18:19:26;2.47;;;2.28;;
36443;SDS011;24692;45.642;13.806;2022-08-04T18:21:52;2.97;;;2.42;;
36443;SDS011;24692;45.642;13.806;2022-08-04T18:24:18;3.65;;;2.53;;
36443;SDS011;24692;45.642;13.806;2022-08-04T18:26:44;5.25;;;2.80;;
36443;SDS011;24692;45.642;13.806;2022-08-04T18:29:10;2.65;;;2.20;;
36443;SDS011;24692;45.642;13.806;2022-08-04T18:31:35;5.88;;;2.33;;
36443;SDS011;24692;45.642;13.806;2022-08-04T18:34:05;3.50;;;2.50;;
36443;SDS011;24692;45.642;13.806;2022-08-04T18:36:32;3.55;;;2.60;;
36443;SDS011;24692;45.642;13.806;2022-08-04T18:38:59;5.03;;;2.80;;
36443;SDS011;24692;45.642;13.806;2022-08-04T18:41:26;2.60;;;2.40;;
36443;SDS011;24692;45.642;13.806;2022-08-04T18:43:55;3.17;;;2.50;;
36443;SDS011;24692;45.642;13.806;2022-08-04T18:46:22;4.15;;;2.63;;
36443;SDS011;24692;45.642;13.806;2022-08-04T18:48:48;3.45;;;2.60;;
36443;SDS011;24692;45.642;13.806;2022-08-04T18:51:14;3.35;;;2.50;;
36443;SDS011;24692;45.642;13.806;2022-08-04T18:53:42;6.50;;;2.95;;
36443;SDS011;24692;45.642;13.806;2022-08-04T18:56:09;3.25;;;2.72;;
36443;SDS011;24692;45.642;13.806;2022-08-04T18:58:34;3.95;;;2.88;;
36443;SDS011;24692;45.642;13.806;2022-08-04T19:01:00;5.00;;;3.10;;
36443;SDS011;24692;45.642;13.806;2022-08-04T19:03:26;6.70;;;2.67;;
36443;SDS011;24692;45.642;13.806;2022-08-04T19:05:52;3.55;;;2.80;;
36443;SDS011;24692;45.642;13.806;2022-08-04T19:08:18;4.18;;;3.28;;
36443;SDS011;24692;45.642;13.806;2022-08-04T19:10:44;6.05;;;2.85;;
36443;SDS011;24692;45.642;13.806;2022-08-04T19:13:10;4.35;;;2.88;;
36443;SDS011;24692;45.642;13.806;2022-08-04T19:15:35;5.22;;;3.53;;
36443;SDS011;24692;45.642;13.806;2022-08-04T19:18:01;3.55;;;3.15;;
36443;SDS011;24692;45.642;13.806;2022-08-04T19:20:27;4.43;;;3.08;;
36443;SDS011;24692;45.642;13.806;2022-08-04T19:22:53;3.83;;;2.92;;
36443;SDS011;24692;45.642;13.806;2022-08-04T19:25:20;3.60;;;2.97;;
36443;SDS011;24692;45.642;13.806;2022-08-04T19:27:45;3.03;;;2.70;;
36443;SDS011;24692;45.642;13.806;2022-08-04T19:30:11;4.45;;;2.92;;
36443;SDS011;24692;45.642;13.806;2022-08-04T19:32:37;3.50;;;2.50;;
36443;SDS011;24692;45.642;13.806;2022-08-04T19:35:02;3.92;;;2.47;;
36443;SDS011;24692;45.642;13.806;2022-08-04T19:37:29;2.70;;;2.50;;
36443;SDS011;24692;45.642;13.806;2022-08-04T19:39:56;3.78;;;2.58;;
36443;SDS011;24692;45.642;13.806;2022-08-04T19:42:22;3.80;;;2.45;;
36443;SDS011;24692;45.642;13.806;2022-08-04T19:44:47;4.18;;;2.50;;
36443;SDS011;24692;45.642;13.806;2022-08-04T19:47:13;2.90;;;2.60;;
36443;SDS011;24692;45.642;13.806;2022-08-04T19:49:39;2.88;;;2.58;;
36443;SDS011;24692;45.642;13.806;2022-08-04T19:52:05;5.45;;;2.70;;
36443;SDS011;24692;45.642;13.806;2022-08-04T19:54:31;3.20;;;2.88;;
36443;SDS011;24692;45.642;13.806;2022-08-04T19:56:57;4.07;;;2.67;;
36443;SDS011;24692;45.642;13.806;2022-08-04T19:59:23;3.72;;;2.80;;
36443;SDS011;24692;45.642;13.806;2022-08-04T20:01:49;3.15;;;2.80;;
36443;SDS011;24692;45.642;13.806;2022-08-04T20:04:15;3.78;;;3.33;;
36443;SDS011;24692;45.642;13.806;2022-08-04T20:06:41;3.53;;;2.90;;
36443;SDS011;24692;45.642;13.806;2022-08-04T20:09:08;3.88;;;2.70;;
36443;SDS011;24692;45.642;13.806;2022-08-04T20:11:34;3.60;;;2.90;;
36443;SDS011;24692;45.642;13.806;2022-08-04T20:13:59;3.40;;;2.80;;